Time;durP1;ratioP1;P1;durP2;ratioP2;P2;SDS_P1;SDS_P2;PMS_P1;PMS_P2;Temp;Humidity;BMP_temperature;BMP_pressure;BME280_temperature;BME280_humidity;BME280_pressure;Samples;Min_cycle;Max_cycle;Signal;HPM_P1;HPM_P2
2022/01/11 00:00:35;;;;;;;472.17;57.78;;;0.10;99.90;;;;;;5113003;28;20031;-68
2022/01/11 00:03:03;;;;;;;394.27;48.67;;;0.50;99.90;;;;;;5112986;28;20048;-69
2022/01/11 00:05:34;;;;;;;575.72;60.22;;;;;;;;;;5112834;28;20066;-69
2022/01/11 00:08:00;;;;;;;629.53;57.45;;;-0.40;99.90;;;;;;5113226;28;20058;-69
2022/01/11 00:10:33;;;;;;;582.47;56.22;;;0.40;99.90;;;;;;5112987;28;20040;-69
2022/01/11 00:13:00;;;;;;;533.13;52.35;;;;;;;;;;5112891;28;20051;-69
2022/01/11 00:15:27;;;;;;;462.77;49.22;;;0.40;99.90;;;;;;5112619;28;20107;-69
2022/01/11 00:17:53;;;;;;;543.92;54.97;;;;;;;;;;5110945;28;20047;-69
2022/01/11 00:20:20;;;;;;;481.55;56.22;;;0.30;99.90;;;;;;5111196;28;20055;-68
2022/01/11 00:25:26;;;;;;;585.08;57.60;;;1.30;99.90;;;;;;5112369;28;20571;-69
2022/01/11 00:27:52;;;;;;;561.60;57.45;;;;;;;;;;5112252;28;20051;-69
2022/01/11 00:30:18;;;;;;;763.22;69.70;;;;;;;;;;5110655;28;20047;-68
2022/01/11 00:32:49;;;;;;;497.45;52.30;;;0.30;99.90;;;;;;5112327;28;20791;-69
2022/01/11 00:35:17;;;;;;;692.95;62.17;;;0.00;99.90;;;;;;5093696;28;20043;-68
2022/01/11 00:37:44;;;;;;;720.58;65.22;;;0.80;99.90;;;;;;5111926;28;20043;-68
2022/01/11 00:40:11;;;;;;;424.70;47.28;;;0.30;99.90;;;;;;5110850;28;20440;-68
2022/01/11 00:42:37;;;;;;;628.53;62.83;;;0.20;99.90;;;;;;5110981;28;20048;-68
2022/01/11 00:45:05;;;;;;;564.53;57.83;;;0.10;99.90;;;;;;5111972;28;20112;-68
2022/01/11 00:47:30;;;;;;;613.50;66.07;;;0.10;99.90;;;;;;5111608;28;20032;-68
2022/01/11 00:49:56;;;;;;;576.80;61.67;;;;;;;;;;5110354;28;20407;-68
2022/01/11 00:52:24;;;;;;;483.17;53.25;;;0.80;99.90;;;;;;5110783;28;20039;-68
2022/01/11 00:54:50;;;;;;;644.30;73.72;;;;;;;;;;5093950;28;20062;-68
2022/01/11 00:57:16;;;;;;;353.02;48.72;;;;;;;;;;5112137;28;20198;-68
2022/01/11 00:59:42;;;;;;;638.88;63.58;;;;;;;;;;5111714;28;20481;-68
2022/01/11 01:02:08;;;;;;;548.70;59.65;;;0.10;99.90;;;;;;5111502;28;20124;-70
2022/01/11 01:04:34;;;;;;;645.42;71.97;;;0.90;99.90;;;;;;5110119;28;20518;-70
2022/01/11 01:07:00;;;;;;;589.92;64.55;;;;;;;;;;5111536;28;20051;-70
2022/01/11 01:09:31;;;;;;;581.72;66.28;;;0.80;99.90;;;;;;5110222;28;20059;-70
2022/01/11 01:11:57;;;;;;;512.63;53.03;;;-0.50;99.90;;;;;;5110221;28;20111;-70
2022/01/11 01:14:25;;;;;;;682.55;69.20;;;-0.10;99.90;;;;;;5109687;28;20069;-70
2022/01/11 01:16:51;;;;;;;608.47;60.60;;;;;;;;;;5111250;28;20054;-69
2022/01/11 01:19:19;;;;;;;680.97;68.65;;;0.00;99.90;;;;;;5110178;28;20052;-70
2022/01/11 01:21:47;;;;;;;554.60;57.70;;;0.20;99.90;;;;;;5109735;28;20059;-69
2022/01/11 01:24:13;;;;;;;504.58;55.30;;;-0.70;99.90;;;;;;5111068;28;20044;-70
2022/01/11 01:26:39;;;;;;;597.10;55.30;;;0.30;99.90;;;;;;5111323;28;20050;-70
2022/01/11 01:29:07;;;;;;;492.50;54.72;;;0.10;99.90;;;;;;5109892;28;20136;-70
2022/01/11 01:31:33;;;;;;;298.35;43.88;;;;;;;;;;5111049;28;20408;-70
2022/01/11 01:34:02;;;;;;;520.53;55.45;;;0.10;99.90;;;;;;5110845;28;20040;-69
2022/01/11 01:36:29;;;;;;;635.63;65.63;;;-0.20;99.90;;;;;;5111457;28;20047;-70
2022/01/11 01:38:55;;;;;;;610.97;54.80;;;;;;;;;;5111105;28;20039;-70
2022/01/11 01:41:22;;;;;;;390.73;50.45;;;;;;;;;;5110748;28;20530;-70
2022/01/11 01:43:52;;;;;;;599.88;69.88;;;0.20;99.90;;;;;;5110871;28;20082;-70
2022/01/11 01:46:18;;;;;;;598.08;62.78;;;;;;;;;;5110309;28;20579;-69
2022/01/11 01:48:45;;;;;;;598.97;63.88;;;;;;;;;;5110620;28;20044;-70
2022/01/11 01:51:13;;;;;;;316.08;46.78;;;0.20;99.90;;;;;;5110875;28;20075;-70
2022/01/11 01:53:43;;;;;;;567.15;59.80;;;0.70;99.90;;;;;;5110674;28;20054;-70
2022/01/11 01:56:09;;;;;;;257.45;42.47;;;0.10;99.90;;;;;;5110670;28;20560;-70
2022/01/11 01:58:37;;;;;;;431.20;52.55;;;;;;;;;;5110689;28;20055;-70
2022/01/11 02:01:04;;;;;;;429.77;55.20;;;0.30;99.90;;;;;;5110945;28;20043;-70
2022/01/11 02:03:38;;;;;;;298.52;48.05;;;0.10;99.90;;;;;;5111296;28;20106;-70
2022/01/11 02:06:06;;;;;;;419.35;52.15;;;0.20;99.90;;;;;;5110699;28;20101;-70
2022/01/11 02:08:33;;;;;;;396.08;52.47;;;0.80;99.90;;;;;;5109485;28;20872;-70
2022/01/11 02:10:59;;;;;;;508.58;51.10;;;-0.10;99.90;;;;;;5092529;28;20047;-69
2022/01/11 02:13:25;;;;;;;447.98;51.65;;;;;;;;;;5109348;28;20039;-70
2022/01/11 02:15:51;;;;;;;517.95;54.20;;;-0.10;99.90;;;;;;5109285;28;20036;-70
2022/01/11 02:18:22;;;;;;;393.58;47.42;;;0.00;99.90;;;;;;5109436;28;20069;-67
2022/01/11 02:20:50;;;;;;;212.60;42.83;;;1.30;99.90;;;;;;5109370;28;20043;-68
2022/01/11 02:23:18;;;;;;;397.70;49.67;;;0.00;99.90;;;;;;5108941;28;20513;-68
2022/01/11 02:25:44;;;;;;;316.63;41.20;;;0.00;99.90;;;;;;5109153;28;20079;-68
2022/01/11 02:28:14;;;;;;;369.85;44.88;;;0.90;99.90;;;;;;5109099;28;20039;-67
2022/01/11 02:30:40;;;;;;;234.85;40.15;;;0.20;99.90;;;;;;5109113;28;20040;-67
2022/01/11 02:33:15;;;;;;;429.30;44.08;;;;;;;;;;5108937;28;20067;-67
2022/01/11 02:35:48;;;;;;;303.65;42.60;;;0.10;99.90;;;;;;5109277;28;20046;-67
2022/01/11 02:38:14;;;;;;;467.33;52.65;;;0.10;99.90;;;;;;5113236;28;20390;-67
2022/01/11 02:40:40;;;;;;;447.20;46.75;;;0.00;99.90;;;;;;5113564;28;20051;-67
2022/01/11 02:43:09;;;;;;;316.67;38.33;;;0.70;99.90;;;;;;5114961;28;20132;-67
2022/01/11 02:45:36;;;;;;;369.42;43.50;;;0.00;99.90;;;;;;5113272;28;20096;-67
2022/01/11 02:48:02;;;;;;;430.00;47.03;;;;;;;;;;5113307;28;20126;-67
2022/01/11 02:50:28;;;;;;;312.92;40.88;;;;;;;;;;5096150;28;20055;-67
2022/01/11 02:52:54;;;;;;;157.43;35.15;;;0.00;99.90;;;;;;5115088;28;20459;-67
2022/01/11 02:55:20;;;;;;;270.48;41.58;;;0.30;99.90;;;;;;5113143;28;20134;-68
2022/01/11 02:57:46;;;;;;;466.08;47.88;;;0.40;99.90;;;;;;5113194;28;20046;-68
2022/01/11 03:00:17;;;;;;;516.30;51.30;;;-0.50;99.90;;;;;;5113118;28;20051;-68
2022/01/11 03:02:45;;;;;;;267.80;38.38;;;;;;;;;;5112872;28;20122;-69
2022/01/11 03:05:12;;;;;;;391.38;46.92;;;0.50;99.90;;;;;;5112385;28;20086;-69
2022/01/11 03:07:39;;;;;;;335.85;46.03;;;0.00;99.90;;;;;;5112854;28;20135;-69
2022/01/11 03:12:49;;;;;;;259.38;39.70;;;;;;;;;;5112720;28;20079;-69
2022/01/11 03:15:15;;;;;;;502.70;49.53;;;-0.10;99.90;;;;;;5112291;28;20180;-69
2022/01/11 03:17:41;;;;;;;420.58;49.90;;;-0.10;99.90;;;;;;5112837;28;20126;-69
2022/01/11 03:20:07;;;;;;;449.55;50.53;;;0.10;99.90;;;;;;5112658;28;20059;-69
2022/01/11 03:22:35;;;;;;;223.07;39.60;;;-0.30;99.90;;;;;;5095394;28;20047;-69
2022/01/11 03:25:02;;;;;;;397.70;48.45;;;-0.10;99.90;;;;;;5112356;28;20126;-69
2022/01/11 03:27:27;;;;;;;457.73;47.45;;;-0.10;99.90;;;;;;5112321;28;20081;-69
2022/01/11 03:29:53;;;;;;;417.17;43.47;;;-0.30;99.90;;;;;;5112124;28;20075;-69
2022/01/11 03:32:19;;;;;;;324.65;40.25;;;-0.10;99.90;;;;;;5112371;28;20122;-69
2022/01/11 03:34:48;;;;;;;435.50;44.58;;;0.50;99.90;;;;;;5112281;28;20040;-69
2022/01/11 03:37:16;;;;;;;395.65;45.50;;;0.60;99.90;;;;;;5111998;28;20445;-69
2022/01/11 03:39:42;;;;;;;316.35;38.55;;;;;;;;;;5112176;28;20399;-69
2022/01/11 03:42:08;;;;;;;217.18;41.40;;;0.00;99.90;;;;;;5111959;28;20054;-69
2022/01/11 03:44:34;;;;;;;300.83;39.55;;;-0.20;99.90;;;;;;5113508;28;20055;-69
2022/01/11 03:47:00;;;;;;;417.73;45.22;;;-0.20;99.90;;;;;;5111429;28;20140;-69
2022/01/11 03:49:26;;;;;;;248.52;43.25;;;;;;;;;;5111439;28;20123;-69
2022/01/11 03:51:52;;;;;;;277.02;44.65;;;;;;;;;;5111653;28;20509;-69
2022/01/11 03:54:25;;;;;;;390.10;53.08;;;;;;;;;;5111551;28;20039;-69
2022/01/11 03:56:51;;;;;;;363.83;47.70;;;-0.50;99.90;;;;;;5111740;28;20040;-69
2022/01/11 03:59:17;;;;;;;289.83;48.40;;;;;;;;;;5094568;28;20383;-69
2022/01/11 04:01:43;;;;;;;297.73;48.45;;;;;;;;;;5111693;28;20525;-69
2022/01/11 04:04:10;;;;;;;266.30;45.45;;;-0.20;99.90;;;;;;5111338;28;20050;-69
2022/01/11 04:06:36;;;;;;;232.05;48.42;;;;;;;;;;5112802;28;20048;-68
2022/01/11 04:09:04;;;;;;;261.98;50.60;;;-0.30;99.90;;;;;;5111247;28;20055;-69
2022/01/11 04:11:31;;;;;;;317.70;51.40;;;;;;;;;;5111135;28;20047;-69
2022/01/11 04:13:57;;;;;;;303.98;53.67;;;;;;;;;;5111282;28;20044;-69
2022/01/11 04:16:23;;;;;;;276.33;52.33;;;;;;;;;;5113249;27;20089;-69
2022/01/11 04:18:52;;;;;;;292.55;45.95;;;;;;;;;;5111081;28;20047;-69
2022/01/11 04:21:18;;;;;;;207.77;49.33;;;;;;;;;;5110999;28;20051;-69
2022/01/11 04:23:45;;;;;;;208.95;43.33;;;-1.10;99.90;;;;;;5111120;28;20088;-69
2022/01/11 04:26:11;;;;;;;477.38;61.55;;;;;;;;;;5111225;28;20048;-69
2022/01/11 04:28:37;;;;;;;367.20;57.35;;;;;;;;;;5111653;28;20055;-69
2022/01/11 04:31:03;;;;;;;419.65;57.88;;;;;;;;;;5110743;28;20453;-69
2022/01/11 04:33:33;;;;;;;334.67;54.63;;;;;;;;;;5112550;28;20395;-69
2022/01/11 04:36:00;;;;;;;358.40;57.20;;;-0.10;99.90;;;;;;5110994;28;20563;-69
2022/01/11 04:38:28;;;;;;;365.58;58.58;;;-0.20;99.90;;;;;;5110789;28;20035;-69
2022/01/11 04:40:54;;;;;;;313.63;52.28;;;0.00;99.90;;;;;;5110867;28;20040;-69
2022/01/11 04:43:20;;;;;;;301.10;51.78;;;-0.20;99.90;;;;;;5111077;28;20448;-69
2022/01/11 04:45:49;;;;;;;278.05;55.42;;;;;;;;;;5093934;28;20044;-69
2022/01/11 04:48:15;;;;;;;342.33;58.55;;;;;;;;;;5110453;28;20043;-69
2022/01/11 04:50:42;;;;;;;305.88;56.05;;;-0.30;99.90;;;;;;5110391;28;20133;-69
2022/01/11 04:53:08;;;;;;;256.02;55.75;;;;;;;;;;5093715;28;20453;-69
2022/01/11 04:55:34;;;;;;;230.23;55.17;;;-0.70;99.90;;;;;;5110346;28;20483;-70
2022/01/11 04:58:00;;;;;;;212.68;50.50;;;0.00;99.90;;;;;;5110594;28;20100;-69
2022/01/11 05:00:26;;;;;;;275.80;57.75;;;-0.60;99.90;;;;;;5109798;28;20052;-69
2022/01/11 05:02:52;;;;;;;292.27;60.30;;;;;;;;;;5110088;28;20845;-69
2022/01/11 05:05:17;;;;;;;195.65;52.63;;;0.10;99.90;;;;;;5093096;28;20060;-69
2022/01/11 05:07:45;;;;;;;382.20;64.28;;;-0.30;99.90;;;;;;5110426;28;20039;-69
2022/01/11 05:10:11;;;;;;;257.50;57.17;;;-0.10;99.90;;;;;;5110155;28;20084;-69
2022/01/11 05:12:38;;;;;;;222.27;57.05;;;;;;;;;;5110242;28;20062;-69
2022/01/11 05:15:09;;;;;;;337.30;63.80;;;0.00;99.90;;;;;;5110010;28;20132;-69
2022/01/11 05:17:39;;;;;;;326.33;57.70;;;-0.10;99.90;;;;;;5111779;28;20046;-69
2022/01/11 05:20:07;;;;;;;256.23;63.42;;;0.70;99.90;;;;;;5109983;28;20039;-69
2022/01/11 05:22:33;;;;;;;325.58;63.92;;;-0.10;99.90;;;;;;5109902;28;20035;-69
2022/01/11 05:24:59;;;;;;;234.40;57.67;;;-0.20;99.90;;;;;;5109984;28;20058;-69
2022/01/11 05:27:27;;;;;;;291.48;56.83;;;-0.10;99.90;;;;;;5109766;28;20039;-69
2022/01/11 05:29:54;;;;;;;323.23;61.95;;;0.60;99.90;;;;;;5109962;28;20056;-69
2022/01/11 05:32:20;;;;;;;283.80;59.30;;;0.00;99.90;;;;;;5109715;28;20043;-69
2022/01/11 05:34:49;;;;;;;255.13;58.75;;;-0.50;99.90;;;;;;5109852;28;20042;-69
2022/01/11 05:37:15;;;;;;;361.42;59.83;;;-0.20;99.90;;;;;;5109856;28;20472;-69
2022/01/11 05:39:41;;;;;;;367.73;70.07;;;;;;;;;;5110217;28;20140;-69
2022/01/11 05:42:07;;;;;;;339.02;67.75;;;-0.10;99.90;;;;;;5109865;28;20487;-69
2022/01/11 05:44:34;;;;;;;379.10;66.78;;;-0.20;99.90;;;;;;5109822;28;20048;-69
2022/01/11 05:47:02;;;;;;;301.70;61.05;;;0.10;99.90;;;;;;5109647;28;20572;-69
2022/01/11 05:49:28;;;;;;;460.23;75.35;;;0.20;99.90;;;;;;5109293;28;20513;-69
2022/01/11 05:51:54;;;;;;;418.27;69.93;;;-0.20;99.90;;;;;;5092982;28;20135;-69
2022/01/11 05:54:22;;;;;;;358.27;68.55;;;-0.10;99.90;;;;;;5110331;28;20079;-69
2022/01/11 05:56:50;;;;;;;383.75;72.93;;;;;;;;;;5110149;28;20480;-69
2022/01/11 05:59:15;;;;;;;418.65;71.47;;;-0.30;99.90;;;;;;5105913;27;20065;-69
2022/01/11 06:01:41;;;;;;;485.23;82.60;;;0.00;99.90;;;;;;5118928;27;20924;-68
2022/01/11 06:04:07;;;;;;;408.15;72.07;;;;;;;;;;5122621;27;20563;-69
2022/01/11 06:06:33;;;;;;;373.80;71.68;;;;;;;;;;5092271;28;20086;-69
2022/01/11 06:09:01;;;;;;;420.55;78.03;;;;;;;;;;5119613;27;20051;-69
2022/01/11 06:11:26;;;;;;;370.33;71.50;;;-0.40;99.90;;;;;;5108020;28;20031;-69
2022/01/11 06:13:52;;;;;;;421.25;76.85;;;;;;;;;;5127491;27;20140;-69
2022/01/11 06:16:21;;;;;;;333.52;71.68;;;;;;;;;;5136534;27;20078;-69
2022/01/11 06:18:47;;;;;;;412.30;77.32;;;0.60;99.90;;;;;;5135463;27;20118;-69
2022/01/11 06:21:15;;;;;;;444.42;75.68;;;0.20;99.90;;;;;;5125058;27;20047;-70
2022/01/11 06:23:41;;;;;;;369.98;72.85;;;0.20;99.90;;;;;;5115096;28;20043;-69
2022/01/11 06:26:07;;;;;;;390.95;69.78;;;0.80;99.90;;;;;;5115866;28;20451;-69
2022/01/11 06:28:33;;;;;;;370.10;75.55;;;;;;;;;;5117467;28;20078;-69
2022/01/11 06:30:59;;;;;;;395.75;72.80;;;;;;;;;;5116447;28;20043;-68
2022/01/11 06:33:25;;;;;;;377.58;71.95;;;-0.10;99.90;;;;;;5116499;28;20047;-69
2022/01/11 06:35:50;;;;;;;377.83;71.93;;;0.20;99.90;;;;;;5116506;28;20089;-69
2022/01/11 06:38:16;;;;;;;300.90;67.30;;;-0.30;99.90;;;;;;5116481;28;20036;-69
2022/01/11 06:40:42;;;;;;;227.93;58.83;;;0.00;99.90;;;;;;5116538;28;20059;-69
2022/01/11 06:43:08;;;;;;;309.50;67.65;;;;;;;;;;5116707;28;20074;-67
2022/01/11 06:45:34;;;;;;;264.38;62.65;;;-0.20;99.90;;;;;;5117801;27;20051;-69
2022/01/11 06:48:00;;;;;;;237.65;65.45;;;0.10;99.90;;;;;;5116601;28;20047;-69
2022/01/11 06:50:27;;;;;;;235.05;63.60;;;-0.50;99.90;;;;;;5116887;28;20075;-69
2022/01/11 06:52:53;;;;;;;263.73;65.55;;;0.20;99.90;;;;;;5099256;28;20047;-69
2022/01/11 06:55:20;;;;;;;184.02;58.38;;;-0.30;99.90;;;;;;5098902;28;20093;-71
2022/01/11 06:57:47;;;;;;;231.55;64.65;;;-0.20;99.90;;;;;;5116468;27;20091;-69
2022/01/11 07:00:13;;;;;;;218.65;63.60;;;;;;;;;;5117296;28;20153;-71
2022/01/11 07:02:42;;;;;;;183.55;55.78;;;-0.90;99.90;;;;;;5116077;27;20035;-70
2022/01/11 07:05:10;;;;;;;197.05;57.40;;;-0.10;99.90;;;;;;5098619;28;20625;-68
2022/01/11 07:07:37;;;;;;;175.88;56.35;;;;;;;;;;5098496;28;20119;-68
2022/01/11 07:10:04;;;;;;;217.00;59.47;;;-0.30;99.90;;;;;;5098654;28;20131;-69
2022/01/11 07:12:30;;;;;;;184.00;56.63;;;0.30;99.90;;;;;;5116172;28;20044;-68
2022/01/11 07:14:56;;;;;;;181.60;55.65;;;0.00;99.90;;;;;;5116069;28;20506;-68
2022/01/11 07:18:09;;;;;;;186.27;56.00;;;-0.20;99.90;;;;;;5116684;27;20126;-70
2022/01/11 07:24:23;;;;;;;147.48;50.63;;;;;;;;;;5113910;28;20092;-68
2022/01/11 07:26:49;;;;;;;152.80;55.10;;;;;;;;;;5114582;28;20518;-68
2022/01/11 07:29:16;;;;;;;156.95;54.90;;;;;;;;;;5113680;28;20118;-68
2022/01/11 07:31:42;;;;;;;139.10;52.13;;;;;;;;;;5113027;28;20107;-68
2022/01/11 07:34:11;;;;;;;144.35;50.72;;;-0.40;99.90;;;;;;5113904;28;20040;-68
2022/01/11 07:36:42;;;;;;;142.10;50.65;;;-0.30;99.90;;;;;;5112551;28;20093;-68
2022/01/11 07:39:16;;;;;;;134.88;51.30;;;-0.40;99.90;;;;;;5114434;28;20504;-68
2022/01/11 07:41:43;;;;;;;145.98;52.63;;;-0.40;99.90;;;;;;5112625;28;20105;-68
2022/01/11 07:44:19;;;;;;;129.95;50.20;;;;;;;;;;5113781;28;20051;-68
2022/01/11 07:46:46;;;;;;;136.23;52.55;;;;;;;;;;5113710;28;20097;-68
2022/01/11 07:49:19;;;;;;;114.25;47.88;;;-0.40;99.90;;;;;;5112277;28;20074;-68
2022/01/11 07:51:49;;;;;;;109.25;47.78;;;;;;;;;;5113733;28;20123;-68
2022/01/11 07:54:15;;;;;;;118.80;47.72;;;;;;;;;;5113466;28;20126;-68
2022/01/11 07:56:41;;;;;;;114.75;46.13;;;-0.70;99.90;;;;;;5113543;28;20043;-68
2022/01/11 07:59:09;;;;;;;106.55;44.45;;;-0.10;99.90;;;;;;5113738;28;20097;-68
2022/01/11 08:01:36;;;;;;;97.75;42.75;;;-0.20;99.90;;;;;;5112107;28;20035;-68
2022/01/11 08:04:02;;;;;;;104.72;44.75;;;-0.20;99.90;;;;;;5113698;28;20104;-68
2022/01/11 08:06:33;;;;;;;94.53;42.63;;;;;;;;;;5113221;28;20143;-70
2022/01/11 08:09:02;;;;;;;87.75;41.95;;;0.60;99.90;;;;;;5098937;28;20097;-68
2022/01/11 08:11:28;;;;;;;103.13;44.38;;;;;;;;;;5098405;28;20047;-66
2022/01/11 08:13:55;;;;;;;99.68;43.22;;;;;;;;;;5123539;27;20043;-67
2022/01/11 08:16:21;;;;;;;82.85;39.85;;;;;;;;;;5123064;27;20050;-67
2022/01/11 08:18:46;;;;;;;84.53;39.05;;;-0.10;99.90;;;;;;5125410;27;20039;-67
2022/01/11 08:21:13;;;;;;;85.90;39.42;;;;;;;;;;5112080;27;20099;-67
2022/01/11 08:23:38;;;;;;;91.35;41.47;;;0.20;99.90;;;;;;5104449;28;20089;-67
2022/01/11 08:26:05;;;;;;;84.40;39.45;;;0.70;99.90;;;;;;5110533;27;20075;-68
2022/01/11 08:28:31;;;;;;;83.88;36.90;;;;;;;;;;5109663;28;20055;-66
2022/01/11 08:30:58;;;;;;;84.82;38.45;;;;;;;;;;5110076;28;20081;-66
2022/01/11 08:33:24;;;;;;;77.72;38.25;;;0.30;99.90;;;;;;5111113;27;20048;-68
2022/01/11 08:35:51;;;;;;;78.43;38.15;;;2.00;99.90;;;;;;5110700;28;20495;-66
2022/01/11 08:38:17;;;;;;;84.15;41.55;;;;;;;;;;5111534;27;20128;-66
2022/01/11 08:40:43;;;;;;;67.07;35.58;;;;;;;;;;5109709;28;20054;-66
2022/01/11 08:43:09;;;;;;;79.35;36.97;;;;;;;;;;5109857;28;20048;-66
2022/01/11 08:45:36;;;;;;;66.90;35.70;;;0.40;99.90;;;;;;5109797;28;20475;-66
2022/01/11 08:48:03;;;;;;;71.80;37.42;;;0.50;99.90;;;;;;5109950;28;20134;-66
2022/01/11 08:50:29;;;;;;;69.03;35.42;;;;;;;;;;5109620;28;20039;-68
2022/01/11 08:52:55;;;;;;;69.97;35.30;;;0.60;99.90;;;;;;5106198;28;20071;-66
2022/01/11 08:55:20;;;;;;;72.38;35.85;;;0.60;99.90;;;;;;5089347;28;20078;-68
2022/01/11 08:57:47;;;;;;;74.35;36.35;;;;;;;;;;5103982;27;20047;-68
2022/01/11 09:00:17;;;;;;;73.90;37.53;;;1.70;99.90;;;;;;5109978;28;20048;-68
2022/01/11 09:02:45;;;;;;;78.18;39.08;;;0.60;99.90;;;;;;5111690;28;20052;-66
2022/01/11 09:05:37;;;;;;;62.38;33.75;;;0.60;99.90;;;;;;5111914;28;20514;-69
2022/01/11 09:11:18;;;;;;;75.13;37.55;;;1.70;99.90;;;;;;5112522;27;20090;-69
2022/01/11 09:13:44;;;;;;;73.72;34.38;;;0.90;99.90;;;;;;5112109;28;20138;-69
2022/01/11 09:16:11;;;;;;;69.20;34.03;;;0.70;99.90;;;;;;5112334;28;20107;-67
2022/01/11 09:18:38;;;;;;;68.10;35.95;;;0.70;99.90;;;;;;5111503;28;20047;-68
2022/01/11 09:21:05;;;;;;;67.95;34.35;;;1.80;99.90;;;;;;5110670;28;20510;-68
2022/01/11 09:24:19;;;;;;;68.85;33.85;;;0.30;99.90;;;;;;5110286;28;20213;-69
2022/01/11 09:27:14;;;;;;;71.15;34.35;;;1.90;99.90;;;;;;5100358;28;20044;-68
2022/01/11 09:29:41;;;;;;;68.15;32.72;;;1.00;99.90;;;;;;5111049;28;20048;-68
2022/01/11 09:32:11;;;;;;;58.95;29.10;;;1.10;99.90;;;;;;5110506;28;20387;-68
2022/01/11 09:34:41;;;;;;;64.82;30.35;;;1.10;99.90;;;;;;5111612;28;20104;-69
2022/01/11 09:37:12;;;;;;;59.25;30.05;;;1.40;99.90;;;;;;5093197;28;20598;-69
2022/01/11 09:40:40;;;;;;;57.17;29.00;;;1.10;99.90;;;;;;5110261;28;20047;-69
2022/01/11 09:43:07;;;;;;;52.47;27.55;;;;;;;;;;5094339;28;20047;-68
2022/01/11 09:45:33;;;;;;;56.08;26.90;;;1.10;99.90;;;;;;5109783;28;20051;-68
2022/01/11 09:47:59;;;;;;;54.40;25.50;;;;;;;;;;5110543;28;20039;-68
2022/01/11 09:50:25;;;;;;;44.33;24.88;;;2.00;99.90;;;;;;5109853;28;20036;-68
2022/01/11 09:52:58;;;;;;;46.97;24.33;;;1.80;99.90;;;;;;5110061;28;20043;-68
2022/01/11 09:55:24;;;;;;;45.35;24.20;;;;;;;;;;5111062;28;20050;-68
2022/01/11 09:57:50;;;;;;;46.28;23.00;;;2.20;99.90;;;;;;5111076;28;20487;-68
2022/01/11 10:00:16;;;;;;;51.60;25.20;;;3.10;99.90;;;;;;5110421;28;20071;-68
2022/01/11 10:02:42;;;;;;;57.80;24.30;;;;;;;;;;5109686;28;20050;-68
2022/01/11 10:05:13;;;;;;;40.97;22.35;;;2.50;99.90;;;;;;5111275;28;20059;-67
2022/01/11 10:07:41;;;;;;;44.28;22.45;;;1.70;99.90;;;;;;5110442;28;20090;-67
2022/01/11 10:10:24;;;;;;;46.20;22.48;;;1.30;99.90;;;;;;5109859;28;20043;-69
2022/01/11 10:12:58;;;;;;;43.67;22.00;;;2.10;99.90;;;;;;5110727;28;20047;-67
2022/01/11 10:15:36;;;;;;;44.05;21.33;;;2.00;99.90;;;;;;5109806;28;20044;-69
2022/01/11 10:18:30;;;;;;;47.28;23.38;;;2.40;99.90;;;;;;5109928;28;20048;-69
2022/01/11 10:20:56;;;;;;;43.10;20.42;;;1.90;99.90;;;;;;5111018;28;20047;-68
2022/01/11 10:23:32;;;;;;;42.45;22.00;;;2.00;99.90;;;;;;5111274;28;20035;-68
2022/01/11 10:25:58;;;;;;;40.83;21.50;;;;;;;;;;5111044;28;20103;-69
2022/01/11 10:28:35;;;;;;;40.65;21.20;;;1.90;99.90;;;;;;5110147;28;20062;-69
2022/01/11 10:31:01;;;;;;;43.22;20.30;;;;;;;;;;5109536;28;20052;-69
2022/01/11 10:33:27;;;;;;;41.78;21.17;;;1.90;99.90;;;;;;5109348;28;20035;-69
2022/01/11 10:35:52;;;;;;;44.15;22.13;;;2.10;99.90;;;;;;5109577;28;20054;-68
2022/01/11 10:38:30;;;;;;;41.83;21.88;;;1.80;99.90;;;;;;5110230;28;20055;-68
2022/01/11 10:40:56;;;;;;;42.30;21.77;;;1.80;99.90;;;;;;5108907;28;20079;-68
2022/01/11 10:44:04;;;;;;;42.45;21.45;;;1.90;99.90;;;;;;5126640;28;20081;-68
2022/01/11 10:46:43;;;;;;;41.95;20.65;;;1.00;99.90;;;;;;5107768;28;20048;-67
2022/01/11 10:49:09;;;;;;;36.10;20.35;;;1.70;99.90;;;;;;5108997;28;20152;-68
2022/01/11 10:55:39;;;;;;;44.15;21.10;;;1.70;99.90;;;;;;5111018;28;20039;-67
2022/01/11 10:58:13;;;;;;;40.03;19.42;;;2.00;99.90;;;;;;5111382;28;20040;-69
2022/01/11 11:00:46;;;;;;;44.55;21.23;;;1.70;99.90;;;;;;5113629;28;20051;-68
2022/01/11 11:03:31;;;;;;;40.55;21.50;;;1.80;99.90;;;;;;5112417;28;20067;-68
2022/01/11 11:06:33;;;;;;;39.40;20.38;;;1.70;99.90;;;;;;5096126;28;20067;-67
2022/01/11 11:09:03;;;;;;;42.60;22.20;;;;;;;;;;5094259;28;20052;-68
2022/01/11 11:11:29;;;;;;;45.22;21.58;;;;;;;;;;5113337;28;20130;-69
2022/01/11 11:17:35;;;;;;;41.20;21.42;;;1.40;99.90;;;;;;5069123;28;20124;-69
2022/01/11 11:20:10;;;;;;;41.83;21.10;;;2.30;99.90;;;;;;5065507;28;20086;-68
2022/01/11 11:22:37;;;;;;;47.78;24.08;;;2.20;99.90;;;;;;5078963;28;20123;-68
2022/01/11 11:25:04;;;;;;;46.15;23.98;;;2.00;99.90;;;;;;5060514;28;20610;-67
2022/01/11 11:27:36;;;;;;;43.28;23.58;;;2.60;99.90;;;;;;5090501;28;20050;-67
2022/01/11 11:30:02;;;;;;;46.63;22.98;;;;;;;;;;5059820;28;20060;-67
2022/01/11 11:32:28;;;;;;;41.72;22.15;;;;;;;;;;5076884;28;20127;-67
2022/01/11 11:34:54;;;;;;;44.45;23.15;;;;;;;;;;5089507;28;20052;-67
2022/01/11 11:37:31;;;;;;;44.78;22.10;;;2.50;99.90;;;;;;5056044;28;20225;-67
2022/01/11 11:40:00;;;;;;;41.97;22.00;;;2.60;99.90;;;;;;5072326;28;20056;-67
2022/01/11 11:42:29;;;;;;;41.10;22.00;;;2.70;99.90;;;;;;5072105;28;20105;-68
2022/01/11 11:44:59;;;;;;;42.60;22.77;;;2.80;99.90;;;;;;5072085;28;20056;-67
2022/01/11 11:47:34;;;;;;;40.90;23.10;;;3.00;99.90;;;;;;5082414;27;20055;-67
2022/01/11 11:50:04;;;;;;;;;;;2.90;99.90;;;;;;5131637;27;20066;-67
2022/01/11 11:52:44;;;;;;;38.60;19.85;;;3.20;99.90;;;;;;5133305;27;19915;-68
2022/01/11 11:55:11;;;;;;;37.10;21.20;;;2.90;99.90;;;;;;5114590;27;20446;-68
2022/01/11 11:57:42;;;;;;;35.88;20.67;;;2.30;99.90;;;;;;5132749;27;20977;-68
2022/01/11 12:00:11;;;;;;;40.00;22.45;;;3.20;99.90;;;;;;5131141;27;20054;-67
2022/01/11 12:02:39;;;;;;;33.95;20.80;;;4.30;99.90;;;;;;5126814;27;20169;-68
2022/01/11 12:05:09;;;;;;;37.85;21.95;;;3.40;99.90;;;;;;5111820;27;20130;-67
2022/01/11 12:07:45;;;;;;;42.75;22.52;;;3.30;99.90;;;;;;5110281;28;20058;-67
2022/01/11 12:10:20;;;;;;;36.75;21.40;;;3.40;99.90;;;;;;5111625;27;20064;-67
2022/01/11 12:12:51;;;;;;;40.80;22.00;;;;;;;;;;5112092;28;20058;-68
2022/01/11 12:15:31;;;;;;;36.95;22.17;;;3.50;99.90;;;;;;5110669;28;20043;-68
2022/01/11 12:17:57;;;;;;;37.33;21.05;;;;;;;;;;5110747;28;20113;-68
2022/01/11 12:20:43;;;;;;;37.70;21.10;;;3.60;99.90;;;;;;5111373;27;20123;-68
2022/01/11 12:23:20;;;;;;;43.80;23.38;;;3.60;99.90;;;;;;5111199;28;20562;-68
2022/01/11 12:25:53;;;;;;;36.15;21.63;;;3.60;99.90;;;;;;5112387;28;20064;-67
2022/01/11 12:32:05;;;;;;;36.75;21.75;;;3.40;99.90;;;;;;5112578;28;20502;-68
2022/01/11 12:35:45;;;;;;;39.80;21.98;;;3.50;99.90;;;;;;5112146;28;20078;-69
2022/01/11 12:38:11;;;;;;;37.42;21.85;;;3.70;99.90;;;;;;5111081;28;20051;-69
2022/01/11 12:40:40;;;;;;;36.55;21.73;;;;;;;;;;5110701;28;20568;-69
2022/01/11 12:43:40;;;;;;;38.60;22.45;;;3.80;99.90;;;;;;5112325;28;20124;-69
2022/01/11 12:46:44;;;;;;;40.17;22.17;;;3.80;99.90;;;;;;5111090;28;20050;-69
2022/01/11 12:49:58;;;;;;;35.35;20.83;;;3.70;99.90;;;;;;5093599;28;20047;-68
2022/01/11 12:53:01;;;;;;;37.83;20.65;;;3.80;99.90;;;;;;5123925;27;20055;-69
2022/01/11 12:55:42;;;;;;;37.40;21.60;;;4.00;99.90;;;;;;5110730;28;20546;-69
2022/01/11 12:58:08;;;;;;;40.67;22.20;;;;;;;;;;5127529;27;20058;-69
2022/01/11 13:00:34;;;;;;;38.35;22.30;;;4.80;99.90;;;;;;5110812;28;20564;-69
2022/01/11 13:03:04;;;;;;;38.90;21.48;;;4.20;99.90;;;;;;5110609;28;20104;-69
2022/01/11 13:09:37;;;;;;;40.90;21.33;;;4.30;99.90;;;;;;5111704;28;20066;-70
2022/01/11 13:12:03;;;;;;;37.38;21.58;;;4.20;99.90;;;;;;5110234;28;20507;-70
2022/01/11 13:14:39;;;;;;;41.55;20.77;;;4.90;99.90;;;;;;5110476;28;20055;-70
2022/01/11 13:17:04;;;;;;;;;;;4.50;99.90;;;;;;5110978;28;20434;-70
2022/01/11 13:19:40;;;;;;;38.83;21.43;;;4.10;99.90;;;;;;5110714;28;19919;-70
2022/01/11 13:22:26;;;;;;;37.28;20.40;;;4.60;99.90;;;;;;5068054;28;20439;-69
2022/01/11 13:25:04;;;;;;;38.40;21.08;;;4.70;99.90;;;;;;5051853;28;20106;-70
2022/01/11 13:27:30;;;;;;;38.15;21.83;;;4.70;99.90;;;;;;5067969;28;20056;-70
2022/01/11 13:29:55;;;;;;;42.85;22.55;;;4.60;99.90;;;;;;5066792;28;20375;-69
2022/01/11 13:32:27;;;;;;;41.65;21.73;;;4.80;99.90;;;;;;5068086;28;20149;-70
2022/01/11 13:34:53;;;;;;;40.75;21.63;;;;;;;;;;5067795;28;20576;-70